Presidio of San Francisco, California
Current Conditions -  °F | °C
As of 5:56 AM on Monday 26 Jan 2015 (Local Time) from KSFO Reporting Station
Few Clouds Few Clouds  
Wind Chill: 51°   Ceiling: Unl
Heat Index: 51°   Visibility: 10mi
Dew Point: 50°   Wind: 6mph
Humidity: 96%   Direction: 50°NE
Pressure: 30.02"   Gusts: NA
Location:  37.7976°N, 122.466°W
Report Text: KSFO 261356Z 05005KT 10SM FEW220 11/10 A3002 RMK AO2 SLP165 T01060100
Loading
Personal Weather Stations






























Interactive Weather Map New forecast layout! Learn more

10-Day Weather Forecast

Advertisements
Track Severe Weather on mobile